createdAt,value
2023-07-18T00:00:07.639Z,26.61
2023-07-18T00:03:09.552Z,26.54
2023-07-18T00:06:11.668Z,26.52
2023-07-18T00:09:13.367Z,26.47
2023-07-18T00:12:15.439Z,26.45
2023-07-18T00:15:17.585Z,26.41
2023-07-18T00:18:19.361Z,26.43
2023-07-18T00:21:24.446Z,26.42
2023-07-18T00:24:26.422Z,26.42
2023-07-18T00:27:28.197Z,26.41
2023-07-18T00:30:30.045Z,26.41
2023-07-18T00:33:31.780Z,26.41
2023-07-18T00:36:33.431Z,26.41
2023-07-18T00:39:35.381Z,26.41
2023-07-18T00:42:38.366Z,26.39
2023-07-18T00:45:40.552Z,26.35
2023-07-18T00:48:42.548Z,26.32
2023-07-18T00:51:44.571Z,26.28
2023-07-18T00:54:46.779Z,26.31
2023-07-18T00:57:49.593Z,26.27
2023-07-18T01:00:51.324Z,26.24
2023-07-18T01:03:53.457Z,26.21
2023-07-18T01:06:57.311Z,26.16
2023-07-18T01:10:16.993Z,26.08
2023-07-18T01:13:18.833Z,26.01
2023-07-18T01:16:20.612Z,25.98
2023-07-18T01:19:22.665Z,25.98
2023-07-18T01:22:24.450Z,26.00
2023-07-18T01:25:26.402Z,25.97
2023-07-18T01:28:28.122Z,25.95
2023-07-18T01:31:29.876Z,25.92
2023-07-18T01:34:31.747Z,25.90
2023-07-18T01:37:34.393Z,25.79
2023-07-18T01:40:36.238Z,25.76
2023-07-18T01:43:38.114Z,25.79
2023-07-18T01:46:40.007Z,25.81
2023-07-18T01:49:41.696Z,25.82
2023-07-18T01:52:43.381Z,25.82
2023-07-18T01:55:45.371Z,25.83
2023-07-18T01:58:47.485Z,25.84
2023-07-18T02:01:49.491Z,25.86
2023-07-18T02:04:51.326Z,25.92
2023-07-18T02:07:53.681Z,25.98
2023-07-18T02:10:55.431Z,26.01
2023-07-18T02:13:57.140Z,26.01
2023-07-18T02:17:01.412Z,25.98
2023-07-18T02:20:03.419Z,26.03
2023-07-18T02:23:05.187Z,26.03
2023-07-18T02:26:07.086Z,25.96
2023-07-18T02:29:08.928Z,25.89
2023-07-18T02:32:10.779Z,25.85
2023-07-18T02:35:15.610Z,25.80
2023-07-18T02:38:17.281Z,25.80
2023-07-18T02:41:19.490Z,25.79
2023-07-18T02:44:21.456Z,25.77
2023-07-18T02:47:23.211Z,25.71
2023-07-18T02:50:25.341Z,25.71
2023-07-18T02:53:27.318Z,25.67
2023-07-18T02:56:29.015Z,25.64
2023-07-18T02:59:30.764Z,25.66
2023-07-18T03:02:33.467Z,25.65
2023-07-18T03:05:35.253Z,25.66
2023-07-18T03:08:36.975Z,25.68
2023-07-18T03:11:38.739Z,25.71
2023-07-18T03:14:41.171Z,25.76
2023-07-18T03:17:44.011Z,25.77
2023-07-18T03:20:45.703Z,25.76
2023-07-18T03:23:47.424Z,25.73
2023-07-18T03:26:49.470Z,25.78
2023-07-18T03:29:51.212Z,25.76
2023-07-18T03:32:54.560Z,25.83
2023-07-18T03:35:56.408Z,25.78
2023-07-18T03:38:58.124Z,25.76
2023-07-18T03:41:59.863Z,25.73
2023-07-18T03:45:01.659Z,25.71
2023-07-18T03:48:03.612Z,25.73
2023-07-18T03:51:06.423Z,25.77
2023-07-18T03:54:08.657Z,25.79
2023-07-18T03:57:10.715Z,25.80
2023-07-18T04:00:13.013Z,25.74
2023-07-18T04:03:15.060Z,25.73
2023-07-18T04:06:17.035Z,25.76
2023-07-18T04:09:18.741Z,25.78
2023-07-18T04:12:20.498Z,25.79
2023-07-18T04:15:22.408Z,25.86
2023-07-18T04:18:24.528Z,25.83
2023-07-18T04:21:26.316Z,25.85
2023-07-18T04:24:28.876Z,25.93
2023-07-18T04:27:31.045Z,25.97
2023-07-18T04:30:32.827Z,25.96
2023-07-18T04:33:36.276Z,26.03
2023-07-18T04:36:38.651Z,26.07
2023-07-18T04:39:40.665Z,26.10
2023-07-18T04:42:42.730Z,26.07
2023-07-18T04:45:45.926Z,26.11
2023-07-18T04:48:48.005Z,26.15
2023-07-18T04:51:50.058Z,26.14
2023-07-18T04:54:51.773Z,26.14
2023-07-18T04:57:53.626Z,26.13
2023-07-18T05:00:56.672Z,26.11
2023-07-18T05:03:59.437Z,26.20
2023-07-18T05:07:01.514Z,26.30
2023-07-18T05:10:03.460Z,26.28
2023-07-18T05:13:05.528Z,26.38
2023-07-18T05:16:07.644Z,26.41
2023-07-18T05:19:09.281Z,26.51
2023-07-18T05:22:11.013Z,26.54
2023-07-18T05:25:15.825Z,26.61
2023-07-18T05:28:18.334Z,26.67
2023-07-18T05:31:20.497Z,26.70
2023-07-18T05:34:22.336Z,26.71
2023-07-18T05:37:24.476Z,26.83
2023-07-18T05:40:26.251Z,26.93
2023-07-18T05:43:27.852Z,27.01
2023-07-18T05:46:32.605Z,27.10
2023-07-18T05:49:34.318Z,27.13
2023-07-18T05:52:35.992Z,27.25
2023-07-18T05:55:37.749Z,27.34
2023-07-18T05:58:39.571Z,27.37
2023-07-18T06:01:42.404Z,27.34
2023-07-18T06:04:44.268Z,27.42
2023-07-18T06:07:46.071Z,27.50
2023-07-18T06:10:47.768Z,27.52
2023-07-18T06:13:50.663Z,27.52
2023-07-18T06:16:52.497Z,27.36
2023-07-18T06:19:54.149Z,27.66
2023-07-18T06:22:56.176Z,27.80
2023-07-18T06:25:57.935Z,28.03
2023-07-18T06:28:59.666Z,28.29
2023-07-18T06:32:01.926Z,28.41
2023-07-18T06:35:17.131Z,28.70
2023-07-18T06:38:25.714Z,28.84
2023-07-18T06:41:27.541Z,28.98
2023-07-18T06:44:29.573Z,29.00
2023-07-18T06:47:31.286Z,29.17
2023-07-18T06:50:32.906Z,29.23
2023-07-18T06:53:34.750Z,29.19
2023-07-18T06:56:36.505Z,29.25
2023-07-18T06:59:38.534Z,29.19
2023-07-18T07:02:40.410Z,29.19
2023-07-18T07:05:43.370Z,29.40
2023-07-18T07:08:45.262Z,29.34
2023-07-18T07:11:46.964Z,29.51
2023-07-18T07:14:48.618Z,29.54
2023-07-18T07:17:51.382Z,29.74
2023-07-18T07:20:54.024Z,29.69
2023-07-18T07:23:57.974Z,29.86
2023-07-18T07:26:59.925Z,29.85
2023-07-18T07:30:01.589Z,29.88
2023-07-18T07:33:05.256Z,29.85
2023-07-18T07:36:06.982Z,29.70
2023-07-18T07:39:08.808Z,29.84
2023-07-18T07:42:10.503Z,29.91
2023-07-18T07:45:14.102Z,30.07
2023-07-18T07:48:15.787Z,30.10
2023-07-18T07:51:17.881Z,30.18
2023-07-18T07:54:19.953Z,30.44
2023-07-18T07:57:21.934Z,30.55
2023-07-18T08:00:24.007Z,30.66
2023-07-18T08:03:26.050Z,30.76
2023-07-18T08:06:27.871Z,30.66
2023-07-18T08:09:30.046Z,30.99
2023-07-18T08:12:31.773Z,31.32
2023-07-18T08:15:34.405Z,31.64
2023-07-18T08:18:36.050Z,31.70
2023-07-18T08:21:37.767Z,31.79
2023-07-18T08:24:39.631Z,32.24
2023-07-18T08:27:41.301Z,33.49
2023-07-18T08:30:44.408Z,35.77
2023-07-18T08:33:47.363Z,35.64
2023-07-18T08:36:49.132Z,35.71
2023-07-18T08:39:50.998Z,36.79
2023-07-18T08:42:53.220Z,36.42
2023-07-18T08:45:57.266Z,36.83
2023-07-18T08:48:59.605Z,36.90
2023-07-18T08:52:01.302Z,35.77
2023-07-18T08:55:03.485Z,34.67
2023-07-18T08:58:06.193Z,33.83
2023-07-18T09:01:08.803Z,33.47
2023-07-18T09:04:10.604Z,33.89
2023-07-18T09:07:14.466Z,36.69
2023-07-18T09:10:21.808Z,39.47
2023-07-18T09:13:26.295Z,40.51
2023-07-18T09:16:29.033Z,40.32
2023-07-18T09:19:40.622Z,40.36
2023-07-18T09:22:42.970Z,39.45
2023-07-18T09:25:44.733Z,40.00
2023-07-18T09:28:47.309Z,39.73
2023-07-18T09:31:50.937Z,38.20
2023-07-18T09:34:54.564Z,40.18
2023-07-18T09:37:56.766Z,37.87
2023-07-18T09:40:58.650Z,38.32
2023-07-18T09:44:27.039Z,36.56
2023-07-18T09:47:25.267Z,36.93
2023-07-18T09:50:28.481Z,38.55
2023-07-18T09:53:31.750Z,39.02
2023-07-18T09:56:34.769Z,39.51
2023-07-18T09:59:39.155Z,37.84
2023-07-18T10:02:40.960Z,35.12
2023-07-18T10:05:45.284Z,33.67
2023-07-18T10:08:47.807Z,32.84
2023-07-18T10:12:07.503Z,32.88
2023-07-18T10:15:09.329Z,32.68
2023-07-18T10:18:18.645Z,32.20
2023-07-18T10:21:31.370Z,31.92
2023-07-18T10:24:33.781Z,32.58
2023-07-18T10:27:41.591Z,34.56
2023-07-18T10:30:46.330Z,37.75
2023-07-18T10:34:07.940Z,40.56
2023-07-18T10:37:09.683Z,42.53
2023-07-18T10:40:30.226Z,44.10
2023-07-18T10:43:32.621Z,41.15
2023-07-18T10:46:37.370Z,41.92
2023-07-18T10:49:39.739Z,42.17
2023-07-18T10:52:41.976Z,42.50
2023-07-18T10:55:43.890Z,42.66
2023-07-18T10:58:45.679Z,43.11
2023-07-18T11:01:48.076Z,42.21
2023-07-18T11:04:50.780Z,42.43
2023-07-18T11:07:55.745Z,42.99
2023-07-18T11:11:00.345Z,42.41
2023-07-18T11:14:02.956Z,41.64
2023-07-18T11:17:12.041Z,41.60
2023-07-18T11:20:17.289Z,39.78
2023-07-18T11:23:19.467Z,40.77
2023-07-18T11:26:21.685Z,37.23
2023-07-18T11:29:27.141Z,36.04
2023-07-18T11:32:39.631Z,35.38
2023-07-18T11:35:45.203Z,34.70
2023-07-18T11:38:51.260Z,34.69
2023-07-18T11:42:06.113Z,34.18
2023-07-18T11:45:11.463Z,34.41
2023-07-18T11:48:13.975Z,34.48
2023-07-18T11:51:15.765Z,34.47
2023-07-18T11:54:17.482Z,34.29
2023-07-18T11:57:20.502Z,34.07
2023-07-18T12:00:28.658Z,34.15
2023-07-18T12:03:30.549Z,34.47
2023-07-18T12:06:32.247Z,34.59
2023-07-18T12:09:34.098Z,34.65
2023-07-18T12:12:35.863Z,34.53
2023-07-18T12:15:38.454Z,34.37
2023-07-18T12:18:40.241Z,34.52
2023-07-18T12:21:42.234Z,34.50
2023-07-18T12:24:43.909Z,34.52
2023-07-18T12:27:45.625Z,34.64
2023-07-18T12:30:47.382Z,34.40
2023-07-18T12:33:49.431Z,34.57
2023-07-18T12:36:51.518Z,34.62
2023-07-18T12:39:57.522Z,34.72
2023-07-18T12:42:59.261Z,34.34
2023-07-18T12:46:01.348Z,34.02
2023-07-18T12:49:04.408Z,33.58
2023-07-18T12:52:07.756Z,34.14
2023-07-18T12:55:09.773Z,34.45
2023-07-18T12:58:12.483Z,34.50
2023-07-18T13:01:14.707Z,34.55
2023-07-18T13:04:17.269Z,34.80
2023-07-18T13:07:19.292Z,34.81
2023-07-18T13:10:20.978Z,34.58
2023-07-18T13:13:22.914Z,34.42
2023-07-18T13:16:25.078Z,34.47
2023-07-18T13:19:26.704Z,34.35
2023-07-18T13:22:28.373Z,34.65
2023-07-18T13:25:30.142Z,34.66
2023-07-18T13:28:31.797Z,34.53
2023-07-18T13:31:34.480Z,34.37
2023-07-18T13:34:37.736Z,34.34
2023-07-18T13:37:39.693Z,34.61
2023-07-18T13:40:41.677Z,34.67
2023-07-18T13:43:44.523Z,34.85
2023-07-18T13:46:46.786Z,34.90
2023-07-18T13:49:50.765Z,34.70
2023-07-18T13:52:52.626Z,34.77
2023-07-18T13:55:54.690Z,34.54
2023-07-18T13:58:57.677Z,34.94
2023-07-18T14:01:59.522Z,34.91
2023-07-18T14:05:01.278Z,34.87
2023-07-18T14:08:04.095Z,34.93
2023-07-18T14:11:05.843Z,34.97
2023-07-18T14:14:07.561Z,35.32
2023-07-18T14:17:09.622Z,35.32
2023-07-18T14:20:12.149Z,34.62
2023-07-18T14:23:13.859Z,34.59
2023-07-18T14:26:15.840Z,34.82
2023-07-18T14:29:18.141Z,35.06
2023-07-18T14:32:19.823Z,34.62
2023-07-18T14:35:22.068Z,34.62
2023-07-18T14:38:23.866Z,34.48
2023-07-18T14:41:25.508Z,34.80
2023-07-18T14:44:28.498Z,34.90
2023-07-18T14:47:30.698Z,34.59
2023-07-18T14:50:32.788Z,34.82
2023-07-18T14:53:34.785Z,34.65
2023-07-18T14:56:36.419Z,34.39
2023-07-18T14:59:38.499Z,34.70
2023-07-18T15:02:40.535Z,34.73
2023-07-18T15:05:43.713Z,34.73
2023-07-18T15:08:45.462Z,34.57
2023-07-18T15:11:48.295Z,34.43
2023-07-18T15:14:50.048Z,34.20
2023-07-18T15:17:52.062Z,34.27
2023-07-18T15:20:53.852Z,34.02
2023-07-18T15:23:55.589Z,33.98
2023-07-18T15:26:59.553Z,33.82
2023-07-18T15:30:01.575Z,33.72
2023-07-18T15:33:12.480Z,33.66
2023-07-18T15:36:25.696Z,33.68
2023-07-18T15:39:27.730Z,33.26
2023-07-18T15:42:30.486Z,33.51
2023-07-18T15:45:32.263Z,33.33
2023-07-18T15:48:33.989Z,33.32
2023-07-18T15:51:38.288Z,33.29
2023-07-18T15:54:39.974Z,33.34
2023-07-18T15:57:41.778Z,33.28
2023-07-18T16:00:43.846Z,32.99
2023-07-18T16:03:45.691Z,32.95
2023-07-18T16:06:47.784Z,32.88
2023-07-18T16:09:51.213Z,32.79
2023-07-18T16:12:52.834Z,32.70
2023-07-18T16:15:54.829Z,32.58
2023-07-18T16:18:59.578Z,32.62
2023-07-18T16:22:01.258Z,32.40
2023-07-18T16:25:03.283Z,32.28
2023-07-18T16:28:05.281Z,32.32
2023-07-18T16:31:07.042Z,32.28
2023-07-18T16:34:08.983Z,32.31
2023-07-18T16:37:10.590Z,32.15
2023-07-18T16:40:12.490Z,32.19
2023-07-18T16:43:14.422Z,32.07
2023-07-18T16:46:16.014Z,32.05
2023-07-18T16:49:18.086Z,31.80
2023-07-18T16:52:19.829Z,31.67
2023-07-18T16:55:21.526Z,31.67
2023-07-18T16:58:23.488Z,31.65
2023-07-18T17:01:25.248Z,31.57
2023-07-18T17:04:26.963Z,31.50
2023-07-18T17:07:28.636Z,31.45
2023-07-18T17:10:30.242Z,31.36
2023-07-18T17:13:32.203Z,31.33
2023-07-18T17:16:34.012Z,31.27
2023-07-18T17:19:45.236Z,31.23
2023-07-18T17:22:57.465Z,31.18
2023-07-18T17:26:02.498Z,31.13
2023-07-18T17:29:04.181Z,31.08
2023-07-18T17:32:06.258Z,31.00
2023-07-18T17:35:08.303Z,31.03
2023-07-18T17:38:10.365Z,31.03
2023-07-18T17:41:12.022Z,30.92
2023-07-18T17:44:13.749Z,30.93
2023-07-18T17:47:15.402Z,30.93
2023-07-18T17:50:17.424Z,30.93
2023-07-18T17:53:19.151Z,30.84
2023-07-18T17:56:21.189Z,30.79
2023-07-18T17:59:23.231Z,30.73
2023-07-18T18:02:24.983Z,30.64
2023-07-18T18:05:37.873Z,30.59
2023-07-18T18:08:39.628Z,30.55
2023-07-18T18:11:41.570Z,30.51
2023-07-18T18:14:43.365Z,30.49
2023-07-18T18:17:45.059Z,30.43
2023-07-18T18:20:47.060Z,30.37
2023-07-18T18:23:49.528Z,30.37
2023-07-18T18:26:51.222Z,30.29
2023-07-18T18:29:52.822Z,30.03
2023-07-18T18:32:54.855Z,30.23
2023-07-18T18:35:57.060Z,30.20
2023-07-18T18:39:00.026Z,30.19
2023-07-18T18:42:02.475Z,30.20
2023-07-18T18:45:05.340Z,30.14
2023-07-18T18:48:08.291Z,30.08
2023-07-18T18:51:10.609Z,30.01
2023-07-18T18:54:12.739Z,29.99
2023-07-18T18:57:15.023Z,30.00
2023-07-18T19:00:17.458Z,29.95
2023-07-18T19:03:19.276Z,29.84
2023-07-18T19:06:20.980Z,29.82
2023-07-18T19:09:24.110Z,29.74
2023-07-18T19:12:26.248Z,29.68
2023-07-18T19:15:28.717Z,29.69
2023-07-18T19:18:30.575Z,29.60
2023-07-18T19:21:34.965Z,29.52
2023-07-18T19:24:38.658Z,29.46
2023-07-18T19:27:40.439Z,29.49
2023-07-18T19:30:42.109Z,29.47
2023-07-18T19:33:44.248Z,29.44
2023-07-18T19:36:45.909Z,29.45
2023-07-18T19:39:47.905Z,29.45
2023-07-18T19:42:49.847Z,29.48
2023-07-18T19:45:51.657Z,29.47
2023-07-18T19:48:53.342Z,29.48
2023-07-18T19:51:55.420Z,29.42
2023-07-18T19:55:00.343Z,29.32
2023-07-18T19:58:02.247Z,29.26
2023-07-18T20:01:04.083Z,29.24
2023-07-18T20:04:06.167Z,29.23
2023-07-18T20:07:08.048Z,29.21
2023-07-18T20:10:10.285Z,29.16
2023-07-18T20:13:11.924Z,29.12
2023-07-18T20:16:14.306Z,29.10
2023-07-18T20:19:16.059Z,29.08
2023-07-18T20:22:19.157Z,29.09
2023-07-18T20:25:20.875Z,29.10
2023-07-18T20:28:22.503Z,29.07
2023-07-18T20:31:24.905Z,29.03
2023-07-18T20:34:26.928Z,29.02
2023-07-18T20:37:28.928Z,28.99
2023-07-18T20:40:30.725Z,28.97
2023-07-18T20:43:32.459Z,28.94
2023-07-18T20:46:34.224Z,28.93
2023-07-18T20:49:35.937Z,28.92
2023-07-18T20:52:38.022Z,28.84
2023-07-18T20:55:40.009Z,28.77
2023-07-18T20:58:41.787Z,28.76
2023-07-18T21:01:43.484Z,28.72
2023-07-18T21:04:45.238Z,28.68
2023-07-18T21:07:47.182Z,28.60
2023-07-18T21:10:48.870Z,28.52
2023-07-18T21:13:50.515Z,28.44
2023-07-18T21:16:52.264Z,28.44
2023-07-18T21:19:53.995Z,28.45
2023-07-18T21:22:55.876Z,28.41
2023-07-18T21:25:57.541Z,28.40
2023-07-18T21:29:04.624Z,28.42
2023-07-18T21:32:07.697Z,28.35
2023-07-18T21:35:10.032Z,28.33
2023-07-18T21:38:11.897Z,28.30
2023-07-18T21:41:13.639Z,28.29
2023-07-18T21:44:15.343Z,28.24
2023-07-18T21:47:17.081Z,28.18
2023-07-18T21:50:18.760Z,28.15
2023-07-18T21:53:20.887Z,28.09
2023-07-18T21:56:22.821Z,28.04
2023-07-18T21:59:24.825Z,28.08
2023-07-18T22:02:34.891Z,28.03
2023-07-18T22:05:36.727Z,27.97
2023-07-18T22:08:38.378Z,27.89
2023-07-18T22:11:40.346Z,27.87
2023-07-18T22:14:41.994Z,27.81
2023-07-18T22:17:44.100Z,27.74
2023-07-18T22:20:46.164Z,27.67
2023-07-18T22:23:47.983Z,27.60
2023-07-18T22:26:49.638Z,27.59
2023-07-18T22:29:51.783Z,27.60
2023-07-18T22:32:54.347Z,27.58
2023-07-18T22:35:56.422Z,27.55
2023-07-18T22:38:58.162Z,27.49
2023-07-18T22:42:21.201Z,27.44
2023-07-18T22:45:22.929Z,27.33
2023-07-18T22:48:24.670Z,27.31
2023-07-18T22:51:26.334Z,27.24
2023-07-18T22:54:28.173Z,27.20
2023-07-18T22:57:30.034Z,27.17
2023-07-18T23:00:31.679Z,27.18
2023-07-18T23:03:33.694Z,27.21
2023-07-18T23:06:35.450Z,27.22
2023-07-18T23:09:37.700Z,27.25
2023-07-18T23:12:39.341Z,27.28
2023-07-18T23:15:41.064Z,27.30
2023-07-18T23:18:42.747Z,27.30
2023-07-18T23:21:44.783Z,27.23
2023-07-18T23:24:46.592Z,27.18
2023-07-18T23:27:48.251Z,27.15
2023-07-18T23:30:50.696Z,27.10
2023-07-18T23:33:52.593Z,27.13
2023-07-18T23:36:54.193Z,27.05
2023-07-18T23:39:57.645Z,27.04
2023-07-18T23:42:59.514Z,27.05
2023-07-18T23:46:01.229Z,26.98
2023-07-18T23:49:03.245Z,26.96
2023-07-18T23:52:05.537Z,26.94
2023-07-18T23:55:08.381Z,26.92
2023-07-18T23:58:10.164Z,26.94
